sensor_id;sensor_type;location;lat;lon;timestamp;P1;durP1;ratioP1;P2;durP2;ratioP2
7080;SDS011;3582;51.506;11.948;2023-05-07T00:01:35;16.00;;;13.80;;
7080;SDS011;3582;51.506;11.948;2023-05-07T00:04:01;16.03;;;13.20;;
7080;SDS011;3582;51.506;11.948;2023-05-07T00:06:28;15.17;;;13.67;;
7080;SDS011;3582;51.506;11.948;2023-05-07T00:08:54;16.60;;;13.37;;
7080;SDS011;3582;51.506;11.948;2023-05-07T00:11:20;19.17;;;13.43;;
7080;SDS011;3582;51.506;11.948;2023-05-07T00:13:47;17.00;;;15.00;;
7080;SDS011;3582;51.506;11.948;2023-05-07T00:16:13;18.43;;;14.80;;
7080;SDS011;3582;51.506;11.948;2023-05-07T00:18:39;20.73;;;14.30;;
7080;SDS011;3582;51.506;11.948;2023-05-07T00:21:05;15.70;;;12.30;;
7080;SDS011;3582;51.506;11.948;2023-05-07T00:23:31;21.43;;;15.77;;
7080;SDS011;3582;51.506;11.948;2023-05-07T00:25:57;18.27;;;14.50;;
7080;SDS011;3582;51.506;11.948;2023-05-07T00:28:23;17.57;;;13.30;;
7080;SDS011;3582;51.506;11.948;2023-05-07T00:30:49;22.97;;;13.37;;
7080;SDS011;3582;51.506;11.948;2023-05-07T00:33:15;15.17;;;13.03;;
7080;SDS011;3582;51.506;11.948;2023-05-07T00:35:41;15.87;;;12.67;;
7080;SDS011;3582;51.506;11.948;2023-05-07T00:38:07;12.77;;;10.67;;
7080;SDS011;3582;51.506;11.948;2023-05-07T00:40:33;12.50;;;11.20;;
7080;SDS011;3582;51.506;11.948;2023-05-07T00:42:59;11.70;;;10.47;;
7080;SDS011;3582;51.506;11.948;2023-05-07T00:45:26;14.57;;;11.27;;
7080;SDS011;3582;51.506;11.948;2023-05-07T00:47:55;15.02;;;11.50;;
7080;SDS011;3582;51.506;11.948;2023-05-07T00:50:22;11.90;;;10.40;;
7080;SDS011;3582;51.506;11.948;2023-05-07T00:52:48;12.70;;;10.50;;
7080;SDS011;3582;51.506;11.948;2023-05-07T00:55:14;14.70;;;13.20;;
7080;SDS011;3582;51.506;11.948;2023-05-07T00:57:41;14.10;;;11.50;;
7080;SDS011;3582;51.506;11.948;2023-05-07T01:00:07;16.60;;;11.87;;
7080;SDS011;3582;51.506;11.948;2023-05-07T01:02:34;14.10;;;11.90;;
7080;SDS011;3582;51.506;11.948;2023-05-07T01:05:00;12.33;;;11.13;;
7080;SDS011;3582;51.506;11.948;2023-05-07T01:07:28;15.20;;;12.40;;
7080;SDS011;3582;51.506;11.948;2023-05-07T01:09:54;14.13;;;12.63;;
7080;SDS011;3582;51.506;11.948;2023-05-07T01:12:20;15.03;;;13.43;;
7080;SDS011;3582;51.506;11.948;2023-05-07T01:14:46;13.15;;;11.35;;
7080;SDS011;3582;51.506;11.948;2023-05-07T01:17:14;14.13;;;12.73;;
7080;SDS011;3582;51.506;11.948;2023-05-07T01:19:40;13.43;;;12.10;;
7080;SDS011;3582;51.506;11.948;2023-05-07T01:22:07;19.77;;;13.17;;
7080;SDS011;3582;51.506;11.948;2023-05-07T01:24:34;13.60;;;12.20;;
7080;SDS011;3582;51.506;11.948;2023-05-07T01:27:01;13.90;;;12.50;;
7080;SDS011;3582;51.506;11.948;2023-05-07T01:29:27;15.60;;;12.13;;
7080;SDS011;3582;51.506;11.948;2023-05-07T01:31:54;13.27;;;11.85;;
7080;SDS011;3582;51.506;11.948;2023-05-07T01:34:20;14.30;;;11.63;;
7080;SDS011;3582;51.506;11.948;2023-05-07T01:36:47;16.07;;;12.67;;
7080;SDS011;3582;51.506;11.948;2023-05-07T01:39:14;12.77;;;11.50;;
7080;SDS011;3582;51.506;11.948;2023-05-07T01:41:40;14.57;;;12.13;;
7080;SDS011;3582;51.506;11.948;2023-05-07T01:44:07;13.13;;;11.73;;
7080;SDS011;3582;51.506;11.948;2023-05-07T01:46:33;15.60;;;12.77;;
7080;SDS011;3582;51.506;11.948;2023-05-07T01:49:00;13.67;;;12.27;;
7080;SDS011;3582;51.506;11.948;2023-05-07T01:51:26;12.50;;;11.13;;
7080;SDS011;3582;51.506;11.948;2023-05-07T01:53:52;14.10;;;12.60;;
7080;SDS011;3582;51.506;11.948;2023-05-07T01:56:18;16.40;;;13.07;;
7080;SDS011;3582;51.506;11.948;2023-05-07T01:58:45;13.07;;;11.77;;
7080;SDS011;3582;51.506;11.948;2023-05-07T02:01:12;14.53;;;12.60;;
7080;SDS011;3582;51.506;11.948;2023-05-07T02:03:38;14.00;;;12.60;;
7080;SDS011;3582;51.506;11.948;2023-05-07T02:06:04;13.40;;;11.00;;
7080;SDS011;3582;51.506;11.948;2023-05-07T02:08:30;15.70;;;12.18;;
7080;SDS011;3582;51.506;11.948;2023-05-07T02:10:56;14.70;;;11.93;;
7080;SDS011;3582;51.506;11.948;2023-05-07T02:13:22;14.10;;;12.67;;
7080;SDS011;3582;51.506;11.948;2023-05-07T02:15:49;14.80;;;12.60;;
7080;SDS011;3582;51.506;11.948;2023-05-07T02:18:16;12.85;;;11.55;;
7080;SDS011;3582;51.506;11.948;2023-05-07T02:20:42;12.32;;;11.05;;
7080;SDS011;3582;51.506;11.948;2023-05-07T02:23:08;14.60;;;11.73;;
7080;SDS011;3582;51.506;11.948;2023-05-07T02:25:34;13.37;;;11.37;;
7080;SDS011;3582;51.506;11.948;2023-05-07T02:28:00;12.23;;;10.40;;
7080;SDS011;3582;51.506;11.948;2023-05-07T02:30:26;13.83;;;11.77;;
7080;SDS011;3582;51.506;11.948;2023-05-07T02:32:52;13.40;;;10.63;;
7080;SDS011;3582;51.506;11.948;2023-05-07T02:35:18;11.57;;;10.47;;
7080;SDS011;3582;51.506;11.948;2023-05-07T02:37:44;12.10;;;10.80;;
7080;SDS011;3582;51.506;11.948;2023-05-07T02:40:10;11.70;;;10.50;;
7080;SDS011;3582;51.506;11.948;2023-05-07T02:42:36;11.50;;;10.33;;
7080;SDS011;3582;51.506;11.948;2023-05-07T02:45:02;13.20;;;11.27;;
7080;SDS011;3582;51.506;11.948;2023-05-07T02:47:28;12.73;;;11.20;;
7080;SDS011;3582;51.506;11.948;2023-05-07T02:49:54;11.70;;;10.60;;
7080;SDS011;3582;51.506;11.948;2023-05-07T02:52:21;12.40;;;11.13;;
7080;SDS011;3582;51.506;11.948;2023-05-07T02:54:47;14.05;;;12.50;;
7080;SDS011;3582;51.506;11.948;2023-05-07T02:57:13;11.00;;;9.75;;
7080;SDS011;3582;51.506;11.948;2023-05-07T02:59:39;15.20;;;13.60;;
7080;SDS011;3582;51.506;11.948;2023-05-07T03:02:05;13.27;;;10.87;;
7080;SDS011;3582;51.506;11.948;2023-05-07T03:04:31;12.65;;;11.30;;
7080;SDS011;3582;51.506;11.948;2023-05-07T03:06:57;11.90;;;10.80;;
7080;SDS011;3582;51.506;11.948;2023-05-07T03:09:23;12.07;;;10.70;;
7080;SDS011;3582;51.506;11.948;2023-05-07T03:11:49;12.77;;;11.47;;
7080;SDS011;3582;51.506;11.948;2023-05-07T03:14:15;16.00;;;12.47;;
7080;SDS011;3582;51.506;11.948;2023-05-07T03:16:41;14.50;;;13.00;;
7080;SDS011;3582;51.506;11.948;2023-05-07T03:19:07;15.10;;;12.33;;
7080;SDS011;3582;51.506;11.948;2023-05-07T03:21:33;15.60;;;14.07;;
7080;SDS011;3582;51.506;11.948;2023-05-07T03:23:59;15.43;;;13.82;;
7080;SDS011;3582;51.506;11.948;2023-05-07T03:26:25;15.95;;;14.45;;
7080;SDS011;3582;51.506;11.948;2023-05-07T03:28:51;17.40;;;13.53;;
7080;SDS011;3582;51.506;11.948;2023-05-07T03:31:17;14.27;;;12.80;;
7080;SDS011;3582;51.506;11.948;2023-05-07T03:33:50;14.80;;;13.20;;
7080;SDS011;3582;51.506;11.948;2023-05-07T03:36:16;18.17;;;13.82;;
7080;SDS011;3582;51.506;11.948;2023-05-07T03:38:42;18.90;;;14.87;;
7080;SDS011;3582;51.506;11.948;2023-05-07T03:41:08;16.25;;;14.57;;
7080;SDS011;3582;51.506;11.948;2023-05-07T03:43:34;24.33;;;15.83;;
7080;SDS011;3582;51.506;11.948;2023-05-07T03:46:00;16.40;;;14.53;;
7080;SDS011;3582;51.506;11.948;2023-05-07T03:48:26;18.02;;;16.27;;
7080;SDS011;3582;51.506;11.948;2023-05-07T03:50:52;17.00;;;15.30;;
7080;SDS011;3582;51.506;11.948;2023-05-07T03:53:18;17.33;;;15.33;;
7080;SDS011;3582;51.506;11.948;2023-05-07T03:55:44;15.53;;;14.00;;
7080;SDS011;3582;51.506;11.948;2023-05-07T03:58:10;15.30;;;13.80;;
7080;SDS011;3582;51.506;11.948;2023-05-07T04:00:36;17.73;;;16.03;;
7080;SDS011;3582;51.506;11.948;2023-05-07T04:03:04;17.20;;;15.50;;
7080;SDS011;3582;51.506;11.948;2023-05-07T04:05:30;17.08;;;15.43;;
7080;SDS011;3582;51.506;11.948;2023-05-07T04:07:59;16.67;;;15.07;;
7080;SDS011;3582;51.506;11.948;2023-05-07T04:10:25;17.83;;;15.93;;
7080;SDS011;3582;51.506;11.948;2023-05-07T04:12:51;19.60;;;17.20;;
7080;SDS011;3582;51.506;11.948;2023-05-07T04:15:17;17.50;;;15.13;;
7080;SDS011;3582;51.506;11.948;2023-05-07T04:17:43;18.03;;;15.53;;
7080;SDS011;3582;51.506;11.948;2023-05-07T04:20:09;17.60;;;15.67;;
7080;SDS011;3582;51.506;11.948;2023-05-07T04:22:36;17.70;;;15.18;;
7080;SDS011;3582;51.506;11.948;2023-05-07T04:25:02;17.73;;;15.93;;
7080;SDS011;3582;51.506;11.948;2023-05-07T04:27:28;18.92;;;16.90;;
7080;SDS011;3582;51.506;11.948;2023-05-07T04:29:54;23.00;;;16.77;;
7080;SDS011;3582;51.506;11.948;2023-05-07T04:32:21;19.33;;;15.57;;
7080;SDS011;3582;51.506;11.948;2023-05-07T04:34:47;21.88;;;16.67;;
7080;SDS011;3582;51.506;11.948;2023-05-07T04:37:13;17.73;;;15.93;;
7080;SDS011;3582;51.506;11.948;2023-05-07T04:39:39;17.83;;;15.97;;
7080;SDS011;3582;51.506;11.948;2023-05-07T04:42:05;22.10;;;17.83;;
7080;SDS011;3582;51.506;11.948;2023-05-07T04:44:33;21.60;;;17.90;;
7080;SDS011;3582;51.506;11.948;2023-05-07T04:47:00;24.10;;;18.05;;
7080;SDS011;3582;51.506;11.948;2023-05-07T04:49:26;23.13;;;17.55;;
7080;SDS011;3582;51.506;11.948;2023-05-07T04:51:52;22.20;;;19.80;;
7080;SDS011;3582;51.506;11.948;2023-05-07T04:54:18;20.13;;;17.80;;
7080;SDS011;3582;51.506;11.948;2023-05-07T04:56:44;22.50;;;18.40;;
7080;SDS011;3582;51.506;11.948;2023-05-07T04:59:10;20.77;;;17.27;;
7080;SDS011;3582;51.506;11.948;2023-05-07T05:01:36;22.80;;;18.70;;
7080;SDS011;3582;51.506;11.948;2023-05-07T05:04:02;23.23;;;19.10;;
7080;SDS011;3582;51.506;11.948;2023-05-07T05:06:28;20.10;;;18.10;;
7080;SDS011;3582;51.506;11.948;2023-05-07T05:08:54;24.97;;;18.40;;
7080;SDS011;3582;51.506;11.948;2023-05-07T05:11:20;21.50;;;18.40;;
7080;SDS011;3582;51.506;11.948;2023-05-07T05:13:46;23.60;;;18.63;;
7080;SDS011;3582;51.506;11.948;2023-05-07T05:16:14;18.33;;;16.43;;
7080;SDS011;3582;51.506;11.948;2023-05-07T05:18:40;21.60;;;16.27;;
7080;SDS011;3582;51.506;11.948;2023-05-07T05:21:06;23.63;;;17.83;;
7080;SDS011;3582;51.506;11.948;2023-05-07T05:23:32;18.33;;;16.50;;
7080;SDS011;3582;51.506;11.948;2023-05-07T05:25:58;19.93;;;17.77;;
7080;SDS011;3582;51.506;11.948;2023-05-07T05:28:24;18.93;;;16.23;;
7080;SDS011;3582;51.506;11.948;2023-05-07T05:30:50;19.20;;;16.55;;
7080;SDS011;3582;51.506;11.948;2023-05-07T05:33:16;18.43;;;16.63;;
7080;SDS011;3582;51.506;11.948;2023-05-07T05:35:42;17.50;;;15.77;;
7080;SDS011;3582;51.506;11.948;2023-05-07T05:38:08;19.53;;;16.93;;
7080;SDS011;3582;51.506;11.948;2023-05-07T05:40:34;19.07;;;17.20;;
7080;SDS011;3582;51.506;11.948;2023-05-07T05:43:00;17.77;;;16.07;;
7080;SDS011;3582;51.506;11.948;2023-05-07T05:45:26;19.40;;;17.40;;
7080;SDS011;3582;51.506;11.948;2023-05-07T05:47:52;17.47;;;15.60;;
7080;SDS011;3582;51.506;11.948;2023-05-07T05:50:18;17.77;;;14.83;;
7080;SDS011;3582;51.506;11.948;2023-05-07T05:52:44;17.73;;;15.93;;
7080;SDS011;3582;51.506;11.948;2023-05-07T05:55:10;17.50;;;15.80;;
7080;SDS011;3582;51.506;11.948;2023-05-07T05:57:36;16.97;;;14.97;;
7080;SDS011;3582;51.506;11.948;2023-05-07T06:00:02;17.93;;;16.20;;
7080;SDS011;3582;51.506;11.948;2023-05-07T06:02:29;17.80;;;15.98;;
7080;SDS011;3582;51.506;11.948;2023-05-07T06:04:55;15.83;;;14.23;;
7080;SDS011;3582;51.506;11.948;2023-05-07T06:07:21;16.40;;;14.70;;
7080;SDS011;3582;51.506;11.948;2023-05-07T06:09:46;15.97;;;14.23;;
7080;SDS011;3582;51.506;11.948;2023-05-07T06:12:12;14.87;;;13.30;;
7080;SDS011;3582;51.506;11.948;2023-05-07T06:14:38;14.90;;;13.33;;
7080;SDS011;3582;51.506;11.948;2023-05-07T06:17:05;15.10;;;13.70;;
7080;SDS011;3582;51.506;11.948;2023-05-07T06:19:31;14.20;;;12.70;;
7080;SDS011;3582;51.506;11.948;2023-05-07T06:21:57;15.30;;;13.70;;
7080;SDS011;3582;51.506;11.948;2023-05-07T06:24:23;13.10;;;11.83;;
7080;SDS011;3582;51.506;11.948;2023-05-07T06:26:49;14.07;;;12.57;;
7080;SDS011;3582;51.506;11.948;2023-05-07T06:29:15;14.10;;;12.43;;
7080;SDS011;3582;51.506;11.948;2023-05-07T06:31:41;14.00;;;12.70;;
7080;SDS011;3582;51.506;11.948;2023-05-07T06:34:07;11.90;;;10.77;;
7080;SDS011;3582;51.506;11.948;2023-05-07T06:36:33;12.13;;;10.93;;
7080;SDS011;3582;51.506;11.948;2023-05-07T06:39:00;12.20;;;10.93;;
7080;SDS011;3582;51.506;11.948;2023-05-07T06:41:26;12.90;;;11.70;;
7080;SDS011;3582;51.506;11.948;2023-05-07T06:43:52;12.23;;;10.87;;
7080;SDS011;3582;51.506;11.948;2023-05-07T06:46:18;10.77;;;9.67;;
7080;SDS011;3582;51.506;11.948;2023-05-07T06:48:44;11.87;;;10.70;;
7080;SDS011;3582;51.506;11.948;2023-05-07T06:51:10;12.43;;;11.23;;
7080;SDS011;3582;51.506;11.948;2023-05-07T06:53:36;13.00;;;11.10;;
7080;SDS011;3582;51.506;11.948;2023-05-07T06:56:02;11.73;;;10.53;;
7080;SDS011;3582;51.506;11.948;2023-05-07T06:58:28;10.13;;;9.23;;
7080;SDS011;3582;51.506;11.948;2023-05-07T07:00:53;10.07;;;9.10;;
7080;SDS011;3582;51.506;11.948;2023-05-07T07:03:19;9.60;;;8.80;;
7080;SDS011;3582;51.506;11.948;2023-05-07T07:05:45;9.37;;;8.50;;
7080;SDS011;3582;51.506;11.948;2023-05-07T07:08:11;12.10;;;9.73;;
7080;SDS011;3582;51.506;11.948;2023-05-07T07:10:37;11.20;;;10.03;;
7080;SDS011;3582;51.506;11.948;2023-05-07T07:13:03;11.40;;;10.33;;
7080;SDS011;3582;51.506;11.948;2023-05-07T07:15:29;11.33;;;10.10;;
7080;SDS011;3582;51.506;11.948;2023-05-07T07:17:55;11.23;;;10.27;;
7080;SDS011;3582;51.506;11.948;2023-05-07T07:20:21;12.13;;;11.00;;
7080;SDS011;3582;51.506;11.948;2023-05-07T07:22:47;11.23;;;10.13;;
7080;SDS011;3582;51.506;11.948;2023-05-07T07:25:13;11.10;;;10.00;;
7080;SDS011;3582;51.506;11.948;2023-05-07T07:27:39;13.77;;;11.37;;
7080;SDS011;3582;51.506;11.948;2023-05-07T07:30:05;12.30;;;10.97;;
7080;SDS011;3582;51.506;11.948;2023-05-07T07:32:31;12.87;;;11.67;;
7080;SDS011;3582;51.506;11.948;2023-05-07T07:34:58;14.40;;;12.90;;
7080;SDS011;3582;51.506;11.948;2023-05-07T07:37:24;12.77;;;11.47;;
7080;SDS011;3582;51.506;11.948;2023-05-07T07:39:50;13.90;;;11.83;;
7080;SDS011;3582;51.506;11.948;2023-05-07T07:42:16;13.80;;;12.33;;
7080;SDS011;3582;51.506;11.948;2023-05-07T07:44:43;13.03;;;11.83;;
7080;SDS011;3582;51.506;11.948;2023-05-07T07:47:09;15.90;;;12.37;;
7080;SDS011;3582;51.506;11.948;2023-05-07T07:49:35;13.77;;;12.37;;
7080;SDS011;3582;51.506;11.948;2023-05-07T07:52:01;14.37;;;12.83;;
7080;SDS011;3582;51.506;11.948;2023-05-07T07:54:27;15.17;;;13.67;;
7080;SDS011;3582;51.506;11.948;2023-05-07T07:56:54;15.20;;;13.77;;
7080;SDS011;3582;51.506;11.948;2023-05-07T07:59:20;14.80;;;13.27;;
7080;SDS011;3582;51.506;11.948;2023-05-07T08:01:46;13.80;;;12.13;;
7080;SDS011;3582;51.506;11.948;2023-05-07T08:04:14;12.70;;;11.50;;
7080;SDS011;3582;51.506;11.948;2023-05-07T08:06:40;14.20;;;12.90;;
7080;SDS011;3582;51.506;11.948;2023-05-07T08:09:07;12.53;;;11.37;;
7080;SDS011;3582;51.506;11.948;2023-05-07T08:11:33;13.43;;;12.13;;
7080;SDS011;3582;51.506;11.948;2023-05-07T08:13:59;12.53;;;11.43;;
7080;SDS011;3582;51.506;11.948;2023-05-07T08:16:25;12.97;;;11.53;;
7080;SDS011;3582;51.506;11.948;2023-05-07T08:18:52;13.63;;;12.23;;
7080;SDS011;3582;51.506;11.948;2023-05-07T08:21:18;12.60;;;11.50;;
7080;SDS011;3582;51.506;11.948;2023-05-07T08:23:43;11.40;;;10.53;;
7080;SDS011;3582;51.506;11.948;2023-05-07T08:26:09;11.33;;;10.33;;
7080;SDS011;3582;51.506;11.948;2023-05-07T08:28:35;13.07;;;11.87;;
7080;SDS011;3582;51.506;11.948;2023-05-07T08:31:01;12.13;;;11.03;;
7080;SDS011;3582;51.506;11.948;2023-05-07T08:33:27;10.97;;;10.07;;
7080;SDS011;3582;51.506;11.948;2023-05-07T08:35:53;10.27;;;9.40;;
7080;SDS011;3582;51.506;11.948;2023-05-07T08:38:19;11.20;;;10.30;;
7080;SDS011;3582;51.506;11.948;2023-05-07T08:40:45;11.27;;;10.23;;
7080;SDS011;3582;51.506;11.948;2023-05-07T08:43:15;11.20;;;10.20;;
7080;SDS011;3582;51.506;11.948;2023-05-07T08:45:41;11.13;;;10.10;;
7080;SDS011;3582;51.506;11.948;2023-05-07T08:48:14;11.40;;;10.30;;
7080;SDS011;3582;51.506;11.948;2023-05-07T08:50:40;11.87;;;10.77;;
7080;SDS011;3582;51.506;11.948;2023-05-07T08:53:06;11.60;;;10.60;;
7080;SDS011;3582;51.506;11.948;2023-05-07T08:55:32;10.97;;;10.00;;
7080;SDS011;3582;51.506;11.948;2023-05-07T08:57:59;9.50;;;8.50;;
7080;SDS011;3582;51.506;11.948;2023-05-07T09:00:24;9.17;;;8.37;;
7080;SDS011;3582;51.506;11.948;2023-05-07T09:02:51;8.73;;;7.83;;
7080;SDS011;3582;51.506;11.948;2023-05-07T09:05:18;7.47;;;6.87;;
7080;SDS011;3582;51.506;11.948;2023-05-07T09:07:44;7.93;;;7.23;;
7080;SDS011;3582;51.506;11.948;2023-05-07T09:10:10;7.73;;;7.00;;
7080;SDS011;3582;51.506;11.948;2023-05-07T09:12:36;9.97;;;9.07;;
7080;SDS011;3582;51.506;11.948;2023-05-07T09:15:04;10.40;;;9.50;;
7080;SDS011;3582;51.506;11.948;2023-05-07T09:17:30;10.50;;;9.50;;
7080;SDS011;3582;51.506;11.948;2023-05-07T09:19:56;10.67;;;9.77;;
7080;SDS011;3582;51.506;11.948;2023-05-07T09:22:28;11.00;;;10.00;;
7080;SDS011;3582;51.506;11.948;2023-05-07T09:24:54;9.97;;;9.07;;
7080;SDS011;3582;51.506;11.948;2023-05-07T09:27:20;10.27;;;9.37;;
7080;SDS011;3582;51.506;11.948;2023-05-07T09:29:46;9.77;;;9.03;;
7080;SDS011;3582;51.506;11.948;2023-05-07T09:32:12;12.17;;;10.97;;
7080;SDS011;3582;51.506;11.948;2023-05-07T09:34:38;11.80;;;10.80;;
7080;SDS011;3582;51.506;11.948;2023-05-07T09:37:04;11.33;;;10.33;;
7080;SDS011;3582;51.506;11.948;2023-05-07T09:42:09;10.00;;;9.20;;
7080;SDS011;3582;51.506;11.948;2023-05-07T09:44:36;12.37;;;11.17;;
7080;SDS011;3582;51.506;11.948;2023-05-07T09:47:04;11.30;;;10.10;;
7080;SDS011;3582;51.506;11.948;2023-05-07T09:49:30;12.13;;;11.03;;
7080;SDS011;3582;51.506;11.948;2023-05-07T09:51:58;13.37;;;11.80;;
7080;SDS011;3582;51.506;11.948;2023-05-07T09:54:25;13.90;;;12.57;;
7080;SDS011;3582;51.506;11.948;2023-05-07T09:56:53;17.10;;;14.47;;
7080;SDS011;3582;51.506;11.948;2023-05-07T09:59:20;15.03;;;13.53;;
7080;SDS011;3582;51.506;11.948;2023-05-07T10:01:47;16.70;;;15.00;;
7080;SDS011;3582;51.506;11.948;2023-05-07T10:04:13;13.77;;;12.57;;
7080;SDS011;3582;51.506;11.948;2023-05-07T10:06:39;12.83;;;11.73;;
7080;SDS011;3582;51.506;11.948;2023-05-07T10:09:06;14.50;;;13.10;;
7080;SDS011;3582;51.506;11.948;2023-05-07T10:11:33;15.10;;;13.80;;
7080;SDS011;3582;51.506;11.948;2023-05-07T10:14:00;15.20;;;13.80;;
7080;SDS011;3582;51.506;11.948;2023-05-07T10:16:27;17.20;;;14.70;;
7080;SDS011;3582;51.506;11.948;2023-05-07T10:18:53;14.43;;;13.03;;
7080;SDS011;3582;51.506;11.948;2023-05-07T10:21:20;13.63;;;12.43;;
7080;SDS011;3582;51.506;11.948;2023-05-07T10:23:50;15.10;;;13.80;;
7080;SDS011;3582;51.506;11.948;2023-05-07T10:26:17;12.50;;;11.40;;
7080;SDS011;3582;51.506;11.948;2023-05-07T10:28:45;15.17;;;13.80;;
7080;SDS011;3582;51.506;11.948;2023-05-07T10:33:56;14.87;;;13.30;;
7080;SDS011;3582;51.506;11.948;2023-05-07T10:36:23;16.00;;;14.40;;
7080;SDS011;3582;51.506;11.948;2023-05-07T10:38:50;13.77;;;12.57;;
7080;SDS011;3582;51.506;11.948;2023-05-07T10:41:16;14.13;;;12.93;;
7080;SDS011;3582;51.506;11.948;2023-05-07T10:43:44;13.90;;;12.60;;
7080;SDS011;3582;51.506;11.948;2023-05-07T10:51:21;15.40;;;13.57;;
7080;SDS011;3582;51.506;11.948;2023-05-07T10:53:48;15.17;;;13.57;;
7080;SDS011;3582;51.506;11.948;2023-05-07T10:58:46;16.23;;;14.10;;
7080;SDS011;3582;51.506;11.948;2023-05-07T11:01:12;17.43;;;14.90;;
7080;SDS011;3582;51.506;11.948;2023-05-07T11:06:24;16.20;;;14.60;;
7080;SDS011;3582;51.506;11.948;2023-05-07T11:11:19;15.20;;;13.77;;
7080;SDS011;3582;51.506;11.948;2023-05-07T11:16:21;14.53;;;13.23;;
7080;SDS011;3582;51.506;11.948;2023-05-07T11:18:52;13.80;;;12.40;;
7080;SDS011;3582;51.506;11.948;2023-05-07T11:23:59;14.30;;;12.83;;
7080;SDS011;3582;51.506;11.948;2023-05-07T11:26:26;13.00;;;11.83;;
7080;SDS011;3582;51.506;11.948;2023-05-07T11:28:52;13.30;;;12.10;;
7080;SDS011;3582;51.506;11.948;2023-05-07T11:31:25;12.50;;;11.23;;
7080;SDS011;3582;51.506;11.948;2023-05-07T11:33:53;11.47;;;10.47;;
7080;SDS011;3582;51.506;11.948;2023-05-07T11:36:20;13.40;;;12.20;;
7080;SDS011;3582;51.506;11.948;2023-05-07T11:38:46;13.67;;;12.40;;
7080;SDS011;3582;51.506;11.948;2023-05-07T11:41:12;12.30;;;11.27;;
7080;SDS011;3582;51.506;11.948;2023-05-07T11:43:40;13.90;;;12.67;;
7080;SDS011;3582;51.506;11.948;2023-05-07T11:46:19;13.10;;;12.00;;
7080;SDS011;3582;51.506;11.948;2023-05-07T11:48:45;12.03;;;11.10;;
7080;SDS011;3582;51.506;11.948;2023-05-07T11:51:11;13.07;;;11.97;;
7080;SDS011;3582;51.506;11.948;2023-05-07T11:53:38;13.00;;;11.90;;
7080;SDS011;3582;51.506;11.948;2023-05-07T11:56:11;13.10;;;12.10;;
7080;SDS011;3582;51.506;11.948;2023-05-07T11:58:38;15.80;;;14.40;;
7080;SDS011;3582;51.506;11.948;2023-05-07T12:01:03;13.10;;;11.97;;
7080;SDS011;3582;51.506;11.948;2023-05-07T12:03:30;15.07;;;13.67;;
7080;SDS011;3582;51.506;11.948;2023-05-07T12:05:56;15.20;;;13.80;;
7080;SDS011;3582;51.506;11.948;2023-05-07T12:08:22;12.77;;;11.53;;
7080;SDS011;3582;51.506;11.948;2023-05-07T12:10:48;12.73;;;11.43;;
7080;SDS011;3582;51.506;11.948;2023-05-07T12:13:15;14.77;;;13.10;;
7080;SDS011;3582;51.506;11.948;2023-05-07T12:15:42;12.07;;;10.90;;
7080;SDS011;3582;51.506;11.948;2023-05-07T12:18:08;12.93;;;11.63;;
7080;SDS011;3582;51.506;11.948;2023-05-07T12:20:34;9.43;;;8.63;;
7080;SDS011;3582;51.506;11.948;2023-05-07T12:23:01;9.97;;;9.27;;
7080;SDS011;3582;51.506;11.948;2023-05-07T12:25:29;9.17;;;8.40;;
7080;SDS011;3582;51.506;11.948;2023-05-07T12:27:56;9.17;;;8.47;;
7080;SDS011;3582;51.506;11.948;2023-05-07T12:30:23;8.20;;;7.60;;
7080;SDS011;3582;51.506;11.948;2023-05-07T12:32:52;9.70;;;8.90;;
7080;SDS011;3582;51.506;11.948;2023-05-07T12:35:25;8.87;;;8.10;;
7080;SDS011;3582;51.506;11.948;2023-05-07T12:37:55;8.63;;;7.83;;
7080;SDS011;3582;51.506;11.948;2023-05-07T12:40:21;10.80;;;8.60;;
7080;SDS011;3582;51.506;11.948;2023-05-07T12:42:47;10.77;;;9.70;;
7080;SDS011;3582;51.506;11.948;2023-05-07T12:45:19;10.27;;;9.37;;
7080;SDS011;3582;51.506;11.948;2023-05-07T12:47:45;12.37;;;11.37;;
7080;SDS011;3582;51.506;11.948;2023-05-07T12:50:12;11.00;;;10.10;;
7080;SDS011;3582;51.506;11.948;2023-05-07T12:52:39;12.20;;;11.20;;
7080;SDS011;3582;51.506;11.948;2023-05-07T12:55:05;13.37;;;12.17;;
7080;SDS011;3582;51.506;11.948;2023-05-07T12:57:37;12.10;;;10.90;;
7080;SDS011;3582;51.506;11.948;2023-05-07T13:00:04;13.57;;;12.30;;
7080;SDS011;3582;51.506;11.948;2023-05-07T13:02:33;11.63;;;10.50;;
7080;SDS011;3582;51.506;11.948;2023-05-07T13:05:00;12.60;;;11.40;;
7080;SDS011;3582;51.506;11.948;2023-05-07T13:07:26;12.23;;;11.17;;
7080;SDS011;3582;51.506;11.948;2023-05-07T13:09:52;12.97;;;11.70;;
7080;SDS011;3582;51.506;11.948;2023-05-07T13:12:18;12.20;;;11.10;;
7080;SDS011;3582;51.506;11.948;2023-05-07T13:14:44;14.10;;;12.70;;
7080;SDS011;3582;51.506;11.948;2023-05-07T13:17:10;11.73;;;10.63;;
7080;SDS011;3582;51.506;11.948;2023-05-07T13:19:36;11.97;;;10.97;;
7080;SDS011;3582;51.506;11.948;2023-05-07T13:22:02;14.23;;;11.13;;
7080;SDS011;3582;51.506;11.948;2023-05-07T13:24:28;11.83;;;10.80;;
7080;SDS011;3582;51.506;11.948;2023-05-07T13:26:54;9.40;;;8.60;;
7080;SDS011;3582;51.506;11.948;2023-05-07T13:29:20;9.53;;;8.73;;
7080;SDS011;3582;51.506;11.948;2023-05-07T13:31:55;10.77;;;9.87;;
7080;SDS011;3582;51.506;11.948;2023-05-07T13:34:20;9.20;;;8.40;;
7080;SDS011;3582;51.506;11.948;2023-05-07T13:36:46;9.60;;;8.80;;
7080;SDS011;3582;51.506;11.948;2023-05-07T13:39:12;9.77;;;8.97;;
7080;SDS011;3582;51.506;11.948;2023-05-07T13:41:38;9.03;;;8.23;;
7080;SDS011;3582;51.506;11.948;2023-05-07T13:44:04;8.47;;;7.80;;
7080;SDS011;3582;51.506;11.948;2023-05-07T13:46:30;8.13;;;7.43;;
7080;SDS011;3582;51.506;11.948;2023-05-07T13:48:57;8.30;;;7.60;;
7080;SDS011;3582;51.506;11.948;2023-05-07T13:51:23;6.70;;;6.20;;
7080;SDS011;3582;51.506;11.948;2023-05-07T13:53:49;7.23;;;6.73;;
7080;SDS011;3582;51.506;11.948;2023-05-07T13:56:15;7.77;;;7.17;;
7080;SDS011;3582;51.506;11.948;2023-05-07T13:58:41;8.93;;;6.50;;
7080;SDS011;3582;51.506;11.948;2023-05-07T14:01:07;7.37;;;6.77;;
7080;SDS011;3582;51.506;11.948;2023-05-07T14:03:33;7.37;;;6.70;;
7080;SDS011;3582;51.506;11.948;2023-05-07T14:06:00;9.43;;;8.73;;
7080;SDS011;3582;51.506;11.948;2023-05-07T14:08:26;7.10;;;6.50;;
7080;SDS011;3582;51.506;11.948;2023-05-07T14:10:52;6.47;;;6.00;;
7080;SDS011;3582;51.506;11.948;2023-05-07T14:13:18;6.10;;;5.60;;
7080;SDS011;3582;51.506;11.948;2023-05-07T14:15:44;5.47;;;4.97;;
7080;SDS011;3582;51.506;11.948;2023-05-07T14:18:12;9.03;;;5.33;;
7080;SDS011;3582;51.506;11.948;2023-05-07T14:20:38;6.67;;;6.07;;
7080;SDS011;3582;51.506;11.948;2023-05-07T14:23:04;6.70;;;6.10;;
7080;SDS011;3582;51.506;11.948;2023-05-07T14:25:30;7.20;;;6.60;;
7080;SDS011;3582;51.506;11.948;2023-05-07T14:27:55;7.23;;;6.53;;
7080;SDS011;3582;51.506;11.948;2023-05-07T14:30:21;7.47;;;6.90;;
7080;SDS011;3582;51.506;11.948;2023-05-07T14:32:49;10.00;;;7.20;;
7080;SDS011;3582;51.506;11.948;2023-05-07T14:35:15;7.73;;;7.17;;
7080;SDS011;3582;51.506;11.948;2023-05-07T14:37:41;7.40;;;6.80;;
7080;SDS011;3582;51.506;11.948;2023-05-07T14:40:07;6.70;;;6.20;;
7080;SDS011;3582;51.506;11.948;2023-05-07T14:42:33;5.93;;;5.43;;
7080;SDS011;3582;51.506;11.948;2023-05-07T14:44:59;6.03;;;5.53;;
7080;SDS011;3582;51.506;11.948;2023-05-07T14:47:25;5.90;;;5.40;;
7080;SDS011;3582;51.506;11.948;2023-05-07T14:49:51;7.20;;;5.23;;
7080;SDS011;3582;51.506;11.948;2023-05-07T14:52:18;5.40;;;5.00;;
7080;SDS011;3582;51.506;11.948;2023-05-07T14:54:44;5.60;;;5.10;;
7080;SDS011;3582;51.506;11.948;2023-05-07T14:57:10;5.53;;;5.03;;